createdAt,value
2023-05-18T00:01:22.670Z,4.70
2023-05-18T00:03:49.542Z,4.60
2023-05-18T00:06:16.422Z,4.50
2023-05-18T00:08:43.148Z,4.60
2023-05-18T00:11:09.923Z,4.50
2023-05-18T00:13:36.737Z,4.50
2023-05-18T00:16:03.520Z,4.50
2023-05-18T00:18:30.345Z,4.50
2023-05-18T00:20:59.017Z,4.50
2023-05-18T00:23:29.811Z,4.40
2023-05-18T00:26:00.861Z,4.40
2023-05-18T00:28:28.675Z,4.40
2023-05-18T00:30:56.165Z,4.40
2023-05-18T00:33:23.301Z,4.40
2023-05-18T00:35:50.088Z,4.30
2023-05-18T00:38:16.895Z,4.30
2023-05-18T00:40:44.218Z,4.20
2023-05-18T00:43:11.128Z,4.20
2023-05-18T00:45:38.147Z,4.20
2023-05-18T00:48:05.400Z,4.20
2023-05-18T00:50:32.408Z,4.10
2023-05-18T00:52:59.728Z,4.10
2023-05-18T00:55:28.629Z,4.10
2023-05-18T00:57:57.078Z,4.10
2023-05-18T01:00:24.342Z,4.00
2023-05-18T01:02:51.755Z,4.00
2023-05-18T01:05:20.167Z,4.00
2023-05-18T01:07:48.103Z,3.90
2023-05-18T01:10:18.197Z,3.80
2023-05-18T01:12:53.540Z,3.80
2023-05-18T01:15:39.391Z,3.80
2023-05-18T01:18:23.590Z,3.70
2023-05-18T01:21:11.111Z,3.70
2023-05-18T01:24:11.716Z,3.60
2023-05-18T01:26:40.490Z,3.60
2023-05-18T01:29:09.998Z,3.50
2023-05-18T01:31:37.084Z,3.40
2023-05-18T01:34:03.851Z,3.40
2023-05-18T01:36:31.623Z,3.40
2023-05-18T01:39:01.787Z,3.40
2023-05-18T01:41:30.523Z,3.40
2023-05-18T01:44:20.642Z,3.30
2023-05-18T01:46:59.550Z,3.30
2023-05-18T01:49:35.763Z,3.40
2023-05-18T01:52:06.510Z,3.30
2023-05-18T01:54:36.288Z,3.20
2023-05-18T01:57:06.630Z,3.20
2023-05-18T01:59:34.545Z,3.30
2023-05-18T02:02:01.790Z,3.20
2023-05-18T02:04:28.859Z,3.20
2023-05-18T02:06:55.795Z,3.20
2023-05-18T02:09:22.992Z,3.20
2023-05-18T02:11:49.760Z,3.10
2023-05-18T02:14:16.684Z,3.20
2023-05-18T02:16:47.349Z,3.10
2023-05-18T02:19:17.549Z,3.10
2023-05-18T02:21:44.732Z,3.00
2023-05-18T02:24:12.595Z,3.10
2023-05-18T02:26:39.833Z,3.00
2023-05-18T02:29:06.933Z,3.00
2023-05-18T02:31:33.799Z,2.90
2023-05-18T02:34:01.468Z,2.80
2023-05-18T02:36:28.404Z,2.80
2023-05-18T02:38:55.500Z,2.80
2023-05-18T02:41:23.360Z,2.80
2023-05-18T02:43:50.102Z,2.80
2023-05-18T02:46:16.955Z,2.80
2023-05-18T02:48:45.734Z,2.80
2023-05-18T02:51:12.821Z,2.80
2023-05-18T02:53:40.026Z,2.70
2023-05-18T02:56:06.974Z,2.70
2023-05-18T02:58:33.733Z,2.70
2023-05-18T03:01:00.609Z,2.70
2023-05-18T03:03:27.405Z,2.70
2023-05-18T03:05:54.162Z,2.60
2023-05-18T03:08:22.901Z,2.60
2023-05-18T03:10:50.416Z,2.60
2023-05-18T03:13:17.339Z,2.70
2023-05-18T03:15:47.477Z,2.60
2023-05-18T03:18:14.433Z,2.50
2023-05-18T03:20:41.163Z,2.50
2023-05-18T03:23:08.812Z,2.60
2023-05-18T03:25:37.360Z,2.60
2023-05-18T03:28:05.050Z,2.50
2023-05-18T03:30:35.643Z,2.50
2023-05-18T03:33:03.234Z,2.50
2023-05-18T03:35:30.289Z,2.50
2023-05-18T03:37:57.230Z,2.60
2023-05-18T03:40:25.004Z,2.50
2023-05-18T03:42:51.775Z,2.50
2023-05-18T03:45:18.739Z,2.50
2023-05-18T03:47:45.802Z,2.60
2023-05-18T03:50:12.659Z,2.50
2023-05-18T03:52:41.534Z,2.50
2023-05-18T03:55:08.645Z,2.40
2023-05-18T03:57:35.444Z,2.40
2023-05-18T04:00:07.393Z,2.40
2023-05-18T04:02:34.327Z,2.50
2023-05-18T04:05:01.317Z,2.50
2023-05-18T04:07:28.127Z,2.60
2023-05-18T04:09:56.667Z,2.60
2023-05-18T04:12:24.027Z,2.60
2023-05-18T04:14:50.833Z,2.60
2023-05-18T04:17:18.553Z,2.70
2023-05-18T04:19:46.174Z,2.70
2023-05-18T04:22:12.928Z,2.80
2023-05-18T04:24:41.362Z,2.90
2023-05-18T04:27:09.682Z,2.90
2023-05-18T04:29:39.172Z,3.00
2023-05-18T04:32:07.988Z,3.00
2023-05-18T04:34:38.360Z,3.10
2023-05-18T04:37:05.988Z,3.30
2023-05-18T04:39:34.669Z,3.40
2023-05-18T04:42:02.017Z,3.50
2023-05-18T04:44:29.636Z,3.70
2023-05-18T04:46:56.901Z,3.80
2023-05-18T04:49:23.957Z,4.00
2023-05-18T04:51:55.634Z,4.20
2023-05-18T04:54:26.851Z,4.50
2023-05-18T04:56:53.818Z,4.60
2023-05-18T04:59:20.886Z,4.80
2023-05-18T05:01:47.770Z,5.00
2023-05-18T05:04:15.664Z,5.20
2023-05-18T05:06:42.451Z,5.40
2023-05-18T05:09:09.180Z,5.60
2023-05-18T05:11:36.129Z,5.70
2023-05-18T05:14:03.288Z,5.90
2023-05-18T05:16:30.157Z,6.00
2023-05-18T05:18:57.051Z,6.10
2023-05-18T05:21:23.875Z,6.30
2023-05-18T05:23:50.582Z,6.40
2023-05-18T05:26:18.212Z,6.50
2023-05-18T05:28:44.918Z,6.60
2023-05-18T05:31:11.853Z,6.70
2023-05-18T05:33:38.764Z,6.80
2023-05-18T05:36:05.926Z,7.00
2023-05-18T05:38:32.963Z,7.10
2023-05-18T05:40:59.748Z,7.20
2023-05-18T05:43:26.701Z,7.30
2023-05-18T05:45:54.024Z,7.40
2023-05-18T05:48:20.941Z,7.60
2023-05-18T05:50:47.772Z,7.70
2023-05-18T05:53:17.900Z,7.80
2023-05-18T05:55:44.761Z,7.90
2023-05-18T05:58:11.646Z,8.00
2023-05-18T06:00:38.377Z,8.10
2023-05-18T06:03:05.173Z,8.30
2023-05-18T06:05:32.424Z,8.40
2023-05-18T06:07:59.503Z,8.60
2023-05-18T06:10:26.290Z,8.70
2023-05-18T06:12:53.192Z,8.80
2023-05-18T06:15:19.944Z,8.90
2023-05-18T06:17:47.140Z,9.00
2023-05-18T06:20:14.162Z,9.20
2023-05-18T06:22:41.113Z,9.30
2023-05-18T06:25:08.531Z,9.50
2023-05-18T06:27:35.250Z,9.60
2023-05-18T06:30:02.046Z,9.70
2023-05-18T06:32:28.994Z,9.80
2023-05-18T06:34:56.532Z,9.80
2023-05-18T06:37:23.469Z,10.00
2023-05-18T06:39:50.229Z,10.20
2023-05-18T06:42:17.124Z,10.40
2023-05-18T06:44:45.057Z,10.60
2023-05-18T06:47:11.786Z,10.80
2023-05-18T06:49:38.544Z,11.00
2023-05-18T06:52:06.008Z,11.10
2023-05-18T06:54:32.738Z,11.40
2023-05-18T06:56:59.568Z,11.40
2023-05-18T06:59:26.391Z,11.60
2023-05-18T07:01:53.211Z,11.70
2023-05-18T07:04:19.978Z,11.80
2023-05-18T07:06:46.852Z,12.00
2023-05-18T07:09:13.693Z,12.20
2023-05-18T07:11:40.488Z,12.50
2023-05-18T07:14:07.247Z,12.70
2023-05-18T07:19:03.687Z,13.30
2023-05-18T07:21:31.355Z,14.10
2023-05-18T07:28:53.023Z,19.60
2023-05-18T07:33:48.953Z,21.00
2023-05-18T07:36:16.155Z,24.50
2023-05-18T07:38:42.990Z,25.60
2023-05-18T07:41:10.117Z,26.20
2023-05-18T07:43:36.898Z,27.20
2023-05-18T07:46:03.673Z,27.80
2023-05-18T07:48:30.402Z,27.50
2023-05-18T07:50:57.212Z,28.40
2023-05-18T07:53:23.915Z,29.10
2023-05-18T07:55:50.986Z,28.90
2023-05-18T07:58:17.716Z,28.90
2023-05-18T08:00:44.631Z,29.50
2023-05-18T08:03:11.608Z,29.60
2023-05-18T08:05:38.646Z,30.10
2023-05-18T08:08:07.022Z,30.90
2023-05-18T08:10:34.300Z,31.40
2023-05-18T08:13:01.049Z,31.90
2023-05-18T08:15:27.860Z,32.30
2023-05-18T08:17:55.304Z,32.70
2023-05-18T08:20:22.238Z,31.60
2023-05-18T08:22:49.089Z,31.00
2023-05-18T08:25:15.886Z,30.50
2023-05-18T08:27:42.813Z,30.40
2023-05-18T08:30:10.175Z,30.40
2023-05-18T08:32:37.498Z,28.90
2023-05-18T08:35:08.639Z,28.30
2023-05-18T08:37:37.437Z,27.90
2023-05-18T08:40:07.788Z,27.30
2023-05-18T08:42:49.922Z,27.20
2023-05-18T08:45:36.218Z,27.70
2023-05-18T08:48:04.948Z,28.60
2023-05-18T08:50:33.006Z,28.20
2023-05-18T08:53:04.834Z,28.00
2023-05-18T08:55:37.277Z,27.60
2023-05-18T08:58:07.391Z,27.80
2023-05-18T09:00:34.739Z,27.60
2023-05-18T09:03:04.311Z,26.80
2023-05-18T09:05:32.366Z,26.50
2023-05-18T09:08:00.529Z,25.60
2023-05-18T09:10:27.975Z,25.30
2023-05-18T09:12:56.823Z,24.50
2023-05-18T09:15:25.378Z,25.20
2023-05-18T09:17:52.555Z,25.40
2023-05-18T09:20:20.208Z,25.00
2023-05-18T09:22:51.256Z,26.60
2023-05-18T09:25:18.430Z,27.60
2023-05-18T09:27:46.192Z,27.40
2023-05-18T09:30:13.363Z,25.80
2023-05-18T09:32:40.854Z,24.90
2023-05-18T09:35:09.126Z,25.20
2023-05-18T09:37:36.287Z,24.50
2023-05-18T09:40:06.841Z,23.70
2023-05-18T09:42:40.670Z,24.00
2023-05-18T09:45:23.740Z,24.90
2023-05-18T09:47:51.446Z,24.30
2023-05-18T09:50:22.574Z,23.80
2023-05-18T09:52:50.222Z,23.30
2023-05-18T09:55:20.818Z,23.90
2023-05-18T09:57:49.771Z,24.00
2023-05-18T10:00:19.358Z,24.00
2023-05-18T10:02:49.173Z,23.40
2023-05-18T10:05:26.543Z,22.80
2023-05-18T10:07:55.095Z,23.20
2023-05-18T10:10:26.681Z,23.40
2023-05-18T10:12:55.436Z,23.60
2023-05-18T10:15:23.742Z,23.80
2023-05-18T10:17:55.226Z,24.10
2023-05-18T10:20:29.861Z,23.80
2023-05-18T10:23:00.829Z,23.30
2023-05-18T10:25:29.201Z,23.10
2023-05-18T10:27:57.719Z,22.90
2023-05-18T10:30:25.007Z,23.80
2023-05-18T10:32:52.844Z,24.10
2023-05-18T10:35:21.772Z,23.60
2023-05-18T10:37:50.360Z,22.80
2023-05-18T10:40:18.019Z,22.00
2023-05-18T10:42:46.378Z,21.40
2023-05-18T10:45:15.255Z,21.30
2023-05-18T10:47:44.066Z,22.10
2023-05-18T10:50:11.733Z,22.90
2023-05-18T10:52:38.772Z,23.90
2023-05-18T10:55:08.049Z,23.80
2023-05-18T10:57:43.956Z,24.00
2023-05-18T11:00:11.167Z,24.30
2023-05-18T11:02:43.106Z,23.80
2023-05-18T11:05:11.494Z,23.60
2023-05-18T11:07:38.668Z,23.10
2023-05-18T11:10:10.629Z,22.70
2023-05-18T11:12:38.668Z,22.50
2023-05-18T11:15:06.101Z,23.30
2023-05-18T11:17:33.070Z,23.50
2023-05-18T11:20:05.921Z,24.10
2023-05-18T11:22:52.094Z,24.60
2023-05-18T11:25:25.616Z,24.40
2023-05-18T11:27:53.431Z,24.00
2023-05-18T11:30:27.320Z,23.40
2023-05-18T11:33:15.018Z,23.00
2023-05-18T11:36:02.810Z,22.70
2023-05-18T11:39:15.161Z,22.90
2023-05-18T11:41:43.265Z,23.00
2023-05-18T11:44:14.895Z,23.20
2023-05-18T11:46:53.269Z,23.50
2023-05-18T11:49:25.173Z,23.70
2023-05-18T11:52:21.963Z,23.00
2023-05-18T11:54:53.051Z,22.60
2023-05-18T11:57:23.785Z,22.10
2023-05-18T11:59:56.569Z,22.00
2023-05-18T12:02:31.012Z,22.00
2023-05-18T12:05:00.428Z,22.50
2023-05-18T12:07:28.937Z,22.90
2023-05-18T12:10:00.992Z,22.80
2023-05-18T12:12:28.741Z,22.50
2023-05-18T12:14:56.861Z,22.70
2023-05-18T12:17:24.594Z,23.20
2023-05-18T12:19:51.711Z,23.20
2023-05-18T12:22:18.684Z,22.80
2023-05-18T12:24:45.780Z,22.70
2023-05-18T12:27:13.126Z,22.50
2023-05-18T12:29:41.591Z,22.10
2023-05-18T12:32:10.656Z,21.90
2023-05-18T12:34:38.012Z,21.60
2023-05-18T12:37:08.045Z,21.40
2023-05-18T12:39:35.214Z,21.50
2023-05-18T12:42:09.682Z,21.70
2023-05-18T12:44:36.817Z,21.90
2023-05-18T12:47:03.904Z,22.00
2023-05-18T12:49:36.450Z,22.50
2023-05-18T12:52:12.778Z,22.90
2023-05-18T12:55:17.567Z,22.60
2023-05-18T12:57:46.157Z,22.40
2023-05-18T13:00:13.519Z,22.00
2023-05-18T13:02:40.507Z,22.00
2023-05-18T13:05:12.209Z,22.00
2023-05-18T13:07:43.949Z,21.80
2023-05-18T13:10:13.261Z,21.50
2023-05-18T13:12:46.235Z,21.20
2023-05-18T13:15:17.539Z,21.10
2023-05-18T13:17:58.322Z,20.90
2023-05-18T13:20:39.889Z,20.80
2023-05-18T13:23:12.455Z,20.50
2023-05-18T13:25:40.356Z,20.60
2023-05-18T13:28:09.252Z,20.90
2023-05-18T13:30:37.188Z,21.00
2023-05-18T13:33:06.062Z,21.30
2023-05-18T13:35:33.090Z,21.50
2023-05-18T13:38:00.178Z,21.40
2023-05-18T13:40:27.458Z,21.40
2023-05-18T13:42:54.296Z,21.40
2023-05-18T13:45:24.211Z,21.00
2023-05-18T13:47:52.191Z,20.70
2023-05-18T13:50:21.043Z,20.80
2023-05-18T13:52:48.045Z,20.90
2023-05-18T13:55:15.660Z,21.20
2023-05-18T13:57:42.471Z,21.50
2023-05-18T14:00:13.632Z,22.00
2023-05-18T14:02:41.555Z,21.70
2023-05-18T14:05:09.383Z,21.50
2023-05-18T14:07:40.637Z,21.30
2023-05-18T14:10:08.836Z,20.70
2023-05-18T14:12:36.104Z,20.20
2023-05-18T14:15:04.061Z,19.90
2023-05-18T14:17:30.987Z,19.70
2023-05-18T14:19:58.717Z,19.80
2023-05-18T14:22:30.577Z,20.00
2023-05-18T14:24:57.425Z,20.10
2023-05-18T14:27:24.404Z,20.00
2023-05-18T14:29:51.438Z,20.00
2023-05-18T14:32:20.768Z,20.20
2023-05-18T14:34:51.557Z,20.60
2023-05-18T14:37:18.992Z,20.80
2023-05-18T14:39:46.844Z,21.10
2023-05-18T14:42:13.683Z,21.00
2023-05-18T14:44:40.651Z,21.00
2023-05-18T14:47:07.580Z,20.80
2023-05-18T14:49:34.463Z,20.50
2023-05-18T14:52:01.263Z,20.30
2023-05-18T14:54:28.035Z,20.00
2023-05-18T14:56:55.128Z,19.70
2023-05-18T14:59:21.979Z,19.60
2023-05-18T15:01:48.782Z,19.80
2023-05-18T15:04:15.584Z,20.00
2023-05-18T15:06:42.474Z,20.40
2023-05-18T15:09:09.996Z,20.60
2023-05-18T15:11:36.747Z,20.70
2023-05-18T15:14:03.568Z,20.70
2023-05-18T15:16:31.815Z,20.70
2023-05-18T15:18:58.683Z,20.40
2023-05-18T15:21:25.569Z,19.90
2023-05-18T15:23:52.302Z,19.50
2023-05-18T15:26:19.159Z,19.00
2023-05-18T15:28:47.268Z,18.70
2023-05-18T15:31:14.177Z,18.30
2023-05-18T15:33:43.578Z,18.10
2023-05-18T15:36:10.546Z,18.00
2023-05-18T15:38:37.429Z,18.10
2023-05-18T15:41:04.246Z,18.20
2023-05-18T15:43:31.164Z,18.40
2023-05-18T15:45:58.811Z,18.70
2023-05-18T15:48:26.044Z,19.00
2023-05-18T15:50:52.850Z,19.30
2023-05-18T15:53:20.003Z,19.50
2023-05-18T15:55:47.166Z,19.60
2023-05-18T15:58:14.723Z,19.50
2023-05-18T16:00:41.492Z,19.20
2023-05-18T16:03:08.628Z,18.90
2023-05-18T16:05:35.561Z,18.70
2023-05-18T16:08:02.282Z,18.40
2023-05-18T16:10:29.169Z,18.10
2023-05-18T16:13:00.365Z,17.70
2023-05-18T16:15:27.122Z,17.60
2023-05-18T16:17:54.644Z,17.40
2023-05-18T16:20:21.585Z,17.10
2023-05-18T16:22:49.309Z,16.90
2023-05-18T16:25:16.136Z,16.80
2023-05-18T16:27:43.311Z,16.60
2023-05-18T16:30:10.587Z,16.40
2023-05-18T16:32:37.711Z,16.30
2023-05-18T16:35:04.791Z,16.10
2023-05-18T16:37:31.606Z,16.10
2023-05-18T16:39:58.453Z,16.10
2023-05-18T16:42:25.855Z,16.10
2023-05-18T16:44:52.636Z,16.10
2023-05-18T16:47:19.445Z,16.10
2023-05-18T16:49:46.137Z,16.00
2023-05-18T16:52:12.902Z,16.00
2023-05-18T16:54:39.601Z,16.00
2023-05-18T16:57:06.396Z,16.00
2023-05-18T16:59:34.488Z,15.90
2023-05-18T17:02:01.749Z,15.80
2023-05-18T17:04:28.647Z,15.80
2023-05-18T17:06:56.072Z,15.80
2023-05-18T17:09:22.822Z,15.70
2023-05-18T17:11:49.685Z,15.70
2023-05-18T17:14:16.485Z,15.70
2023-05-18T17:16:43.231Z,15.60
2023-05-18T17:19:10.078Z,15.60
2023-05-18T17:21:36.886Z,15.50
2023-05-18T17:24:04.196Z,15.50
2023-05-18T17:26:33.262Z,15.40
2023-05-18T17:29:00.186Z,15.30
2023-05-18T17:31:27.284Z,15.30
2023-05-18T17:33:54.651Z,15.20
2023-05-18T17:36:21.562Z,15.20
2023-05-18T17:38:48.510Z,15.10
2023-05-18T17:41:15.666Z,15.00
2023-05-18T17:43:42.811Z,14.80
2023-05-18T17:46:09.672Z,14.70
2023-05-18T17:48:36.493Z,14.60
2023-05-18T17:51:03.639Z,14.50
2023-05-18T17:53:31.114Z,14.50
2023-05-18T17:55:58.677Z,14.40
2023-05-18T17:58:25.423Z,14.30
2023-05-18T18:00:52.207Z,14.20
2023-05-18T18:03:20.925Z,14.20
2023-05-18T18:05:47.745Z,14.10
2023-05-18T18:08:16.192Z,14.00
2023-05-18T18:10:43.000Z,13.90
2023-05-18T18:13:09.750Z,13.80
2023-05-18T18:15:36.566Z,13.80
2023-05-18T18:18:03.556Z,13.70
2023-05-18T18:20:35.537Z,13.70
2023-05-18T18:23:07.345Z,13.70
2023-05-18T18:25:34.108Z,13.70
2023-05-18T18:28:00.804Z,13.70
2023-05-18T18:30:29.001Z,13.60
2023-05-18T18:32:55.877Z,13.50
2023-05-18T18:35:23.079Z,13.60
2023-05-18T18:37:49.786Z,13.70
2023-05-18T18:40:16.575Z,13.50
2023-05-18T18:42:43.340Z,13.40
2023-05-18T18:45:10.455Z,13.40
2023-05-18T18:47:39.116Z,13.40
2023-05-18T18:50:07.252Z,13.30
2023-05-18T18:52:34.043Z,13.40
2023-05-18T18:55:01.253Z,13.20
2023-05-18T18:57:27.966Z,13.20
2023-05-18T18:59:54.793Z,13.10
2023-05-18T19:02:22.514Z,13.10
2023-05-18T19:04:49.394Z,13.10
2023-05-18T19:07:16.275Z,13.00
2023-05-18T19:09:43.085Z,13.00
2023-05-18T19:12:10.103Z,12.90
2023-05-18T19:14:36.982Z,12.90
2023-05-18T19:17:03.866Z,12.80
2023-05-18T19:19:32.584Z,12.70
2023-05-18T19:21:59.453Z,12.70
2023-05-18T19:24:26.214Z,12.70
2023-05-18T19:26:53.005Z,12.60
2023-05-18T19:29:20.251Z,12.60
2023-05-18T19:31:47.173Z,12.50
2023-05-18T19:34:14.186Z,12.40
2023-05-18T19:36:40.931Z,12.40
2023-05-18T19:39:07.656Z,12.30
2023-05-18T19:41:35.308Z,12.40
2023-05-18T19:44:02.677Z,12.30
2023-05-18T19:48:56.808Z,12.10
2023-05-18T19:51:23.696Z,12.10
2023-05-18T19:53:50.828Z,12.00
2023-05-18T19:56:17.615Z,11.90
2023-05-18T19:58:44.352Z,11.90
2023-05-18T20:01:11.158Z,11.80
2023-05-18T20:03:40.175Z,11.70
2023-05-18T20:06:09.249Z,11.70
2023-05-18T20:08:36.202Z,11.60
2023-05-18T20:11:02.922Z,11.50
2023-05-18T20:13:30.628Z,11.40
2023-05-18T20:16:03.367Z,11.40
2023-05-18T20:18:34.991Z,11.20
2023-05-18T20:21:02.128Z,11.00
2023-05-18T20:23:28.933Z,10.90
2023-05-18T20:25:56.278Z,10.80
2023-05-18T20:28:23.213Z,10.70
2023-05-18T20:33:22.627Z,10.60
2023-05-18T20:35:49.680Z,10.60
2023-05-18T20:38:16.935Z,10.60
2023-05-18T20:40:44.221Z,10.60
2023-05-18T20:43:17.631Z,10.60
2023-05-18T20:45:44.714Z,10.70
2023-05-18T20:48:12.348Z,10.60
2023-05-18T20:50:39.185Z,10.70
2023-05-18T20:53:06.133Z,10.70
2023-05-18T20:55:32.936Z,10.70
2023-05-18T20:58:02.482Z,10.70
2023-05-18T21:00:29.325Z,10.70
2023-05-18T21:02:56.479Z,10.70
2023-05-18T21:05:23.417Z,10.60
2023-05-18T21:07:50.486Z,10.70
2023-05-18T21:10:17.283Z,10.80
2023-05-18T21:12:44.372Z,10.90
2023-05-18T21:15:11.440Z,10.80
2023-05-18T21:17:38.220Z,10.80
2023-05-18T21:20:05.590Z,10.80
2023-05-18T21:22:32.364Z,10.80
2023-05-18T21:24:59.156Z,10.70
2023-05-18T21:27:25.908Z,10.60
2023-05-18T21:29:52.874Z,10.50
2023-05-18T21:32:19.796Z,10.30
2023-05-18T21:34:46.564Z,10.20
2023-05-18T21:37:13.374Z,10.10
2023-05-18T21:39:42.056Z,9.90
2023-05-18T21:42:09.273Z,9.80
2023-05-18T21:44:36.406Z,9.70
2023-05-18T21:47:03.139Z,9.70
2023-05-18T21:49:29.865Z,9.60
2023-05-18T21:51:58.158Z,9.50
2023-05-18T21:54:26.396Z,9.40
2023-05-18T21:56:53.260Z,9.40
2023-05-18T21:59:20.057Z,9.30
2023-05-18T22:01:47.014Z,9.30
2023-05-18T22:04:13.772Z,9.30
2023-05-18T22:06:40.887Z,9.30
2023-05-18T22:09:07.824Z,9.30
2023-05-18T22:11:34.584Z,9.30
2023-05-18T22:14:01.294Z,9.20
2023-05-18T22:16:28.126Z,9.30
2023-05-18T22:18:54.915Z,9.30
2023-05-18T22:21:21.682Z,9.30
2023-05-18T22:23:48.406Z,9.40
2023-05-18T22:26:15.186Z,9.40
2023-05-18T22:28:41.931Z,9.30
2023-05-18T22:31:08.646Z,9.30
2023-05-18T22:33:35.374Z,9.20
2023-05-18T22:36:02.111Z,9.20
2023-05-18T22:38:28.929Z,9.10
2023-05-18T22:40:56.198Z,9.10
2023-05-18T22:43:23.229Z,9.00
2023-05-18T22:45:50.202Z,9.00
2023-05-18T22:48:17.158Z,9.00
2023-05-18T22:50:43.950Z,9.50
2023-05-18T22:53:11.956Z,9.10
2023-05-18T22:55:39.133Z,9.00
2023-05-18T22:58:05.907Z,9.10
2023-05-18T23:00:32.800Z,9.10
2023-05-18T23:02:59.844Z,9.10
2023-05-18T23:05:27.715Z,9.10
2023-05-18T23:07:57.746Z,9.10
2023-05-18T23:10:26.544Z,9.10
2023-05-18T23:12:55.677Z,9.10
2023-05-18T23:15:23.232Z,9.10
2023-05-18T23:17:50.580Z,9.10
2023-05-18T23:20:17.329Z,9.10
2023-05-18T23:22:44.875Z,9.10
2023-05-18T23:25:11.710Z,9.10
2023-05-18T23:27:38.452Z,9.20
2023-05-18T23:30:06.088Z,9.20
2023-05-18T23:32:33.144Z,9.20
2023-05-18T23:35:00.225Z,9.20
2023-05-18T23:37:28.794Z,9.30
2023-05-18T23:39:56.726Z,9.30
2023-05-18T23:42:25.603Z,9.30
2023-05-18T23:44:52.514Z,9.30
2023-05-18T23:47:19.672Z,9.40
2023-05-18T23:49:47.860Z,9.40
2023-05-18T23:52:16.057Z,9.40
2023-05-18T23:54:45.557Z,9.60
2023-05-18T23:57:12.641Z,9.50
2023-05-18T23:59:40.432Z,9.50
